createdAt,value
2019-02-15T00:00:41.319Z,4.20
2019-02-15T00:02:44.332Z,4.20
2019-02-15T00:04:48.133Z,4.20
2019-02-15T00:06:51.802Z,4.20
2019-02-15T00:08:56.218Z,4.20
2019-02-15T00:10:59.251Z,4.20
2019-02-15T00:13:02.170Z,4.20
2019-02-15T00:15:05.199Z,4.20
2019-02-15T00:17:09.001Z,4.10
2019-02-15T00:19:21.916Z,4.10
2019-02-15T00:21:25.002Z,4.10
2019-02-15T00:23:27.958Z,4.10
2019-02-15T00:25:30.860Z,4.10
2019-02-15T00:27:34.527Z,4.00
2019-02-15T00:29:37.867Z,4.00
2019-02-15T00:31:40.782Z,4.00
2019-02-15T00:33:43.720Z,4.00
2019-02-15T00:35:47.544Z,4.00
2019-02-15T00:37:50.462Z,4.00
2019-02-15T00:39:53.491Z,4.00
2019-02-15T00:41:57.290Z,4.00
2019-02-15T00:44:00.971Z,4.00
2019-02-15T00:46:07.382Z,4.00
2019-02-15T00:48:10.452Z,4.00
2019-02-15T00:50:27.205Z,4.00
2019-02-15T00:52:30.230Z,4.00
2019-02-15T00:54:43.846Z,3.90
2019-02-15T00:57:01.734Z,3.90
2019-02-15T00:59:19.627Z,3.90
2019-02-15T01:01:29.254Z,3.90
2019-02-15T01:03:47.039Z,3.90
2019-02-15T01:05:56.440Z,3.90
2019-02-15T01:08:14.395Z,3.90
2019-02-15T01:10:32.174Z,3.80
2019-02-15T01:12:35.865Z,3.90
2019-02-15T01:14:38.995Z,3.90
2019-02-15T01:16:41.930Z,3.90
2019-02-15T01:18:44.945Z,3.90
2019-02-15T01:20:48.651Z,3.90
2019-02-15T01:22:52.332Z,3.90
2019-02-15T01:24:55.239Z,3.90
2019-02-15T01:26:58.183Z,3.90
2019-02-15T01:29:01.543Z,3.90
2019-02-15T01:31:20.240Z,3.90
2019-02-15T01:33:40.758Z,3.90
2019-02-15T01:35:53.582Z,3.90
2019-02-15T01:38:01.464Z,3.90
2019-02-15T01:40:05.282Z,3.80
2019-02-15T01:42:25.659Z,3.80
2019-02-15T01:44:30.042Z,3.80
2019-02-15T01:46:37.937Z,3.80
2019-02-15T01:48:40.838Z,3.80
2019-02-15T01:50:45.114Z,3.70
2019-02-15T01:52:48.451Z,3.70
2019-02-15T01:54:52.143Z,3.70
2019-02-15T01:56:55.810Z,3.70
2019-02-15T01:58:58.853Z,3.60
2019-02-15T02:01:01.767Z,3.60
2019-02-15T02:03:04.684Z,3.60
2019-02-15T02:05:08.004Z,3.60
2019-02-15T02:07:10.923Z,3.50
2019-02-15T02:09:13.952Z,3.50
2019-02-15T02:11:17.670Z,3.40
2019-02-15T02:13:20.586Z,3.50
2019-02-15T02:15:23.504Z,3.50
2019-02-15T02:17:26.578Z,3.40
2019-02-15T02:19:29.503Z,3.30
2019-02-15T02:21:32.417Z,3.30
2019-02-15T02:23:35.448Z,3.20
2019-02-15T02:25:39.786Z,3.20
2019-02-15T02:27:42.719Z,3.10
2019-02-15T02:29:45.674Z,3.10
2019-02-15T02:31:48.581Z,3.10
2019-02-15T02:33:51.500Z,3.10
2019-02-15T02:35:54.699Z,3.00
2019-02-15T02:37:57.623Z,3.00
2019-02-15T02:40:00.647Z,3.00
2019-02-15T02:42:03.607Z,2.90
2019-02-15T02:44:08.023Z,2.80
2019-02-15T02:46:11.042Z,2.80
2019-02-15T02:48:14.035Z,2.80
2019-02-15T02:50:16.947Z,2.80
2019-02-15T02:52:19.878Z,2.80
2019-02-15T02:54:23.696Z,2.80
2019-02-15T02:56:26.614Z,2.80
2019-02-15T02:58:29.543Z,2.80
2019-02-15T03:00:33.750Z,2.70
2019-02-15T03:02:35.567Z,2.70
2019-02-15T03:04:38.594Z,2.70
2019-02-15T03:06:42.309Z,2.70
2019-02-15T03:08:45.223Z,2.70
2019-02-15T03:10:48.141Z,2.70
2019-02-15T03:12:51.264Z,2.60
2019-02-15T03:14:54.509Z,2.60
2019-02-15T03:16:57.431Z,2.60
2019-02-15T03:19:00.508Z,2.50
2019-02-15T03:21:04.198Z,2.50
2019-02-15T03:23:07.882Z,2.40
2019-02-15T03:25:11.735Z,2.40
2019-02-15T03:27:14.643Z,2.40
2019-02-15T03:29:17.769Z,2.40
2019-02-15T03:31:21.490Z,2.40
2019-02-15T03:33:24.413Z,2.30
2019-02-15T03:35:27.399Z,2.30
2019-02-15T03:37:45.233Z,2.30
2019-02-15T03:39:48.175Z,2.30
2019-02-15T03:41:51.093Z,2.30
2019-02-15T03:43:54.031Z,2.30
2019-02-15T03:45:56.943Z,2.30
2019-02-15T03:47:59.852Z,2.30
2019-02-15T03:50:04.863Z,2.20
2019-02-15T03:52:05.757Z,2.30
2019-02-15T03:54:08.679Z,2.30
2019-02-15T03:56:11.825Z,2.30
2019-02-15T03:58:14.744Z,2.30
2019-02-15T04:00:17.771Z,2.30
2019-02-15T04:02:21.590Z,2.30
2019-02-15T04:04:24.520Z,2.30
2019-02-15T04:06:27.438Z,2.30
2019-02-15T04:08:31.262Z,2.30
2019-02-15T04:10:34.183Z,2.30
2019-02-15T04:12:37.208Z,2.30
2019-02-15T04:14:40.416Z,2.30
2019-02-15T04:16:43.356Z,2.30
2019-02-15T04:18:46.328Z,2.30
2019-02-15T04:20:49.277Z,2.30
2019-02-15T04:22:52.226Z,2.30
2019-02-15T04:24:56.131Z,2.30
2019-02-15T04:26:59.847Z,2.30
2019-02-15T04:29:02.764Z,2.30
2019-02-15T04:31:05.693Z,2.30
2019-02-15T04:33:09.518Z,2.20
2019-02-15T04:35:12.440Z,2.20
2019-02-15T04:37:15.564Z,2.20
2019-02-15T04:39:19.369Z,2.30
2019-02-15T04:41:23.048Z,2.30
2019-02-15T04:43:25.965Z,2.20
2019-02-15T04:45:29.684Z,2.30
2019-02-15T04:47:32.608Z,2.20
2019-02-15T04:49:35.525Z,2.30
2019-02-15T04:51:38.491Z,2.30
2019-02-15T04:53:42.193Z,2.30
2019-02-15T04:55:46.006Z,2.30
2019-02-15T04:57:49.721Z,2.30
2019-02-15T04:59:52.643Z,2.30
2019-02-15T05:01:55.660Z,2.40
2019-02-15T05:03:59.378Z,2.40
2019-02-15T05:06:02.330Z,2.30
2019-02-15T05:08:05.294Z,2.40
2019-02-15T05:10:08.310Z,2.30
2019-02-15T05:12:12.032Z,2.30
2019-02-15T05:14:14.969Z,2.30
2019-02-15T05:16:18.505Z,2.30
2019-02-15T05:18:21.423Z,2.30
2019-02-15T05:20:24.339Z,2.20
2019-02-15T05:22:27.283Z,2.20
2019-02-15T05:24:30.318Z,2.20
2019-02-15T05:26:33.999Z,2.20
2019-02-15T05:28:37.059Z,2.20
2019-02-15T05:30:39.984Z,2.20
2019-02-15T05:32:43.682Z,2.20
2019-02-15T05:34:47.502Z,2.20
2019-02-15T05:36:50.424Z,2.10
2019-02-15T05:38:53.340Z,2.10
2019-02-15T05:40:57.151Z,2.10
2019-02-15T05:43:00.953Z,2.20
2019-02-15T05:45:04.868Z,2.10
2019-02-15T05:47:07.850Z,2.10
2019-02-15T05:49:11.543Z,2.10
2019-02-15T05:51:15.225Z,2.10
2019-02-15T05:53:18.167Z,2.10
2019-02-15T05:55:21.138Z,2.10
2019-02-15T05:57:24.886Z,2.10
2019-02-15T05:59:29.757Z,2.00
2019-02-15T06:01:32.672Z,2.00
2019-02-15T06:03:35.579Z,2.00
2019-02-15T06:05:38.533Z,2.00
2019-02-15T06:07:41.457Z,2.00
2019-02-15T06:09:45.202Z,2.00
2019-02-15T06:11:49.440Z,2.00
2019-02-15T06:13:52.381Z,2.00
2019-02-15T06:15:55.307Z,2.00
2019-02-15T06:17:59.832Z,1.90
2019-02-15T06:20:02.756Z,2.00
2019-02-15T06:22:05.689Z,2.00
2019-02-15T06:24:08.831Z,1.90
2019-02-15T06:26:11.752Z,1.90
2019-02-15T06:28:14.676Z,1.90
2019-02-15T06:30:17.634Z,1.90
2019-02-15T06:32:20.551Z,1.90
2019-02-15T06:34:23.479Z,1.90
2019-02-15T06:36:26.444Z,1.80
2019-02-15T06:38:34.875Z,1.80
2019-02-15T06:40:33.064Z,1.70
2019-02-15T06:42:36.901Z,1.70
2019-02-15T06:44:39.969Z,1.60
2019-02-15T06:46:43.664Z,1.60
2019-02-15T06:48:47.391Z,1.60
2019-02-15T06:50:50.313Z,1.50
2019-02-15T06:52:53.269Z,1.50
2019-02-15T06:54:56.200Z,1.50
2019-02-15T06:56:59.120Z,1.50
2019-02-15T06:59:20.743Z,1.50
2019-02-15T07:01:26.318Z,1.50
2019-02-15T07:03:34.874Z,1.50
2019-02-15T07:05:38.552Z,1.50
2019-02-15T07:07:41.508Z,1.50
2019-02-15T07:09:44.420Z,1.50
2019-02-15T07:11:48.863Z,1.50
2019-02-15T07:13:52.363Z,1.50
2019-02-15T07:15:55.288Z,1.60
2019-02-15T07:17:58.227Z,1.60
2019-02-15T07:20:01.961Z,1.60
2019-02-15T07:22:04.878Z,1.60
2019-02-15T07:24:07.796Z,1.60
2019-02-15T07:26:10.743Z,1.70
2019-02-15T07:28:13.664Z,1.70
2019-02-15T07:30:16.585Z,1.70
2019-02-15T07:32:19.940Z,1.70
2019-02-15T07:34:22.876Z,1.80
2019-02-15T07:36:25.824Z,1.80
2019-02-15T07:38:28.863Z,1.80
2019-02-15T07:40:32.589Z,1.90
2019-02-15T07:42:35.504Z,1.90
2019-02-15T07:44:38.795Z,1.90
2019-02-15T07:46:41.737Z,2.00
2019-02-15T07:48:44.664Z,2.10
2019-02-15T07:50:47.856Z,2.10
2019-02-15T07:52:50.771Z,2.20
2019-02-15T07:54:54.447Z,2.30
2019-02-15T07:56:57.478Z,2.20
2019-02-15T07:59:00.399Z,2.30
2019-02-15T08:01:03.417Z,2.40
2019-02-15T08:03:07.135Z,2.50
2019-02-15T08:05:10.065Z,2.40
2019-02-15T08:07:12.981Z,2.50
2019-02-15T08:09:16.721Z,2.60
2019-02-15T08:11:19.645Z,2.60
2019-02-15T08:13:23.345Z,2.80
2019-02-15T08:15:35.695Z,2.80
2019-02-15T08:17:30.236Z,2.80
2019-02-15T08:19:33.153Z,2.90
2019-02-15T08:21:36.241Z,2.90
2019-02-15T08:23:39.179Z,3.00
2019-02-15T08:25:42.103Z,3.00
2019-02-15T08:27:45.169Z,3.10
2019-02-15T08:29:48.859Z,3.20
2019-02-15T08:31:51.772Z,3.20
2019-02-15T08:33:54.833Z,3.30
2019-02-15T08:35:58.519Z,3.40
2019-02-15T08:38:02.208Z,3.40
2019-02-15T08:40:05.211Z,3.40
2019-02-15T08:42:08.212Z,3.50
2019-02-15T08:44:11.151Z,3.60
2019-02-15T08:46:14.092Z,3.60
2019-02-15T08:48:17.124Z,3.70
2019-02-15T08:50:20.036Z,3.70
2019-02-15T08:52:23.764Z,3.80
2019-02-15T08:54:26.714Z,3.80
2019-02-15T08:56:30.406Z,3.90
2019-02-15T08:58:34.216Z,4.00
2019-02-15T09:00:37.891Z,4.00
2019-02-15T09:02:40.844Z,4.00
2019-02-15T09:04:43.909Z,4.10
2019-02-15T09:06:47.580Z,4.20
2019-02-15T09:08:51.247Z,4.30
2019-02-15T09:10:54.379Z,4.30
2019-02-15T09:12:57.308Z,4.40
2019-02-15T09:15:00.333Z,4.40
2019-02-15T09:17:04.055Z,4.60
2019-02-15T09:19:06.975Z,4.60
2019-02-15T09:21:09.997Z,4.70
2019-02-15T09:23:13.720Z,4.80
2019-02-15T09:25:16.645Z,4.80
2019-02-15T09:27:20.443Z,4.90
2019-02-15T09:29:23.791Z,5.00
2019-02-15T09:31:26.746Z,5.00
2019-02-15T09:33:29.667Z,5.10
2019-02-15T09:35:32.866Z,5.10
2019-02-15T09:37:35.779Z,5.20
2019-02-15T09:39:39.581Z,5.30
2019-02-15T09:41:42.212Z,5.40
2019-02-15T09:43:45.138Z,5.40
2019-02-15T09:45:48.107Z,5.50
2019-02-15T09:47:51.455Z,5.60
2019-02-15T09:49:54.375Z,5.70
2019-02-15T09:51:57.836Z,5.80
2019-02-15T09:54:01.536Z,5.80
2019-02-15T09:56:04.468Z,5.90
2019-02-15T09:58:07.607Z,6.00
2019-02-15T10:00:11.303Z,6.20
2019-02-15T10:02:14.232Z,6.10
2019-02-15T10:04:17.249Z,6.20
2019-02-15T10:06:21.399Z,6.40
2019-02-15T10:08:24.322Z,6.30
2019-02-15T10:10:27.264Z,6.40
2019-02-15T10:12:30.226Z,6.50
2019-02-15T10:14:33.159Z,6.50
2019-02-15T10:16:36.083Z,6.60
2019-02-15T10:18:39.791Z,6.70
2019-02-15T10:20:42.708Z,6.70
2019-02-15T10:22:45.629Z,6.80
2019-02-15T10:24:49.457Z,6.90
2019-02-15T10:26:52.380Z,6.90
2019-02-15T10:28:55.408Z,7.00
2019-02-15T10:30:58.504Z,7.00
2019-02-15T10:33:01.438Z,7.10
2019-02-15T10:35:04.354Z,7.20
2019-02-15T10:37:08.071Z,7.30
2019-02-15T10:39:10.996Z,7.30
2019-02-15T10:41:13.945Z,7.40
2019-02-15T10:43:17.136Z,7.50
2019-02-15T10:45:20.051Z,7.50
2019-02-15T10:47:25.122Z,7.60
2019-02-15T10:49:25.945Z,7.70
2019-02-15T10:51:29.644Z,7.80
2019-02-15T10:53:33.348Z,7.90
2019-02-15T10:55:38.066Z,7.90
2019-02-15T10:57:39.273Z,7.90
2019-02-15T10:59:42.322Z,8.00
2019-02-15T11:01:45.383Z,8.10
2019-02-15T11:03:49.188Z,8.20
2019-02-15T11:05:52.876Z,8.30
2019-02-15T11:07:57.569Z,8.40
2019-02-15T11:10:00.592Z,8.30
2019-02-15T11:12:04.395Z,8.50
2019-02-15T11:14:07.600Z,8.50
2019-02-15T11:16:10.535Z,8.50
2019-02-15T11:18:13.548Z,8.60
2019-02-15T11:20:17.297Z,8.80
2019-02-15T11:22:20.247Z,8.70
2019-02-15T11:24:23.163Z,8.80
2019-02-15T11:26:26.111Z,8.90
2019-02-15T11:28:29.059Z,8.90
2019-02-15T11:30:32.768Z,9.10
2019-02-15T11:32:36.539Z,9.10
2019-02-15T11:34:39.479Z,9.10
2019-02-15T11:36:42.420Z,9.20
2019-02-15T11:38:46.260Z,9.30
2019-02-15T11:40:49.223Z,9.30
2019-02-15T11:42:53.033Z,9.50
2019-02-15T11:44:56.137Z,9.50
2019-02-15T11:46:59.083Z,9.50
2019-02-15T11:49:02.818Z,9.70
2019-02-15T11:51:05.774Z,9.60
2019-02-15T11:53:09.460Z,9.80
2019-02-15T11:55:12.395Z,9.80
2019-02-15T11:57:15.927Z,9.90
2019-02-15T11:59:18.928Z,10.00
2019-02-15T12:01:21.867Z,10.00
2019-02-15T12:03:24.828Z,10.10
2019-02-15T12:05:27.779Z,10.20
2019-02-15T12:07:31.494Z,10.30
2019-02-15T12:09:35.261Z,10.40
2019-02-15T12:11:38.191Z,10.40
2019-02-15T12:13:41.330Z,10.50
2019-02-15T12:15:44.487Z,10.60
2019-02-15T12:17:47.433Z,10.70
2019-02-15T12:19:51.237Z,10.80
2019-02-15T12:21:54.385Z,10.80
2019-02-15T12:23:57.271Z,10.90
2019-02-15T12:26:00.212Z,11.00
2019-02-15T12:28:03.268Z,11.10
2019-02-15T12:30:08.552Z,11.30
2019-02-15T12:32:11.481Z,11.30
2019-02-15T12:34:15.239Z,11.50
2019-02-15T12:36:18.202Z,11.50
2019-02-15T12:38:21.146Z,11.60
2019-02-15T12:40:24.563Z,11.70
2019-02-15T12:42:27.493Z,11.90
2019-02-15T12:44:30.449Z,12.00
2019-02-15T12:46:33.416Z,12.10
2019-02-15T12:48:36.362Z,12.20
2019-02-15T12:50:39.285Z,12.30
2019-02-15T12:52:42.255Z,12.50
2019-02-15T12:54:45.191Z,12.60
2019-02-15T12:56:48.130Z,12.70
2019-02-15T12:58:51.134Z,12.80
2019-02-15T13:00:54.153Z,12.90
2019-02-15T13:02:57.869Z,13.10
2019-02-15T13:05:01.602Z,13.20
2019-02-15T13:07:04.531Z,13.20
2019-02-15T13:09:07.486Z,13.30
2019-02-15T13:11:10.469Z,13.40
2019-02-15T13:13:13.387Z,13.50
2019-02-15T13:15:16.343Z,13.50
2019-02-15T13:17:24.620Z,13.60
2019-02-15T13:19:22.350Z,13.70
2019-02-15T13:21:26.154Z,14.00
2019-02-15T13:23:30.001Z,14.10
2019-02-15T13:25:36.797Z,14.00
2019-02-15T13:27:37.355Z,14.30
2019-02-15T13:29:41.171Z,14.40
2019-02-15T13:31:44.108Z,14.40
2019-02-15T13:33:47.124Z,14.50
2019-02-15T13:35:51.780Z,14.70
2019-02-15T13:37:54.713Z,14.70
2019-02-15T13:39:58.410Z,14.90
2019-02-15T13:42:01.393Z,14.90
2019-02-15T13:44:04.316Z,15.00
2019-02-15T13:46:07.248Z,15.10
2019-02-15T13:48:11.076Z,15.30
2019-02-15T13:50:14.878Z,15.40
2019-02-15T13:52:18.568Z,15.60
2019-02-15T13:54:22.345Z,15.60
2019-02-15T13:56:25.276Z,15.60
2019-02-15T13:58:28.219Z,15.70
2019-02-15T14:00:31.356Z,15.80
2019-02-15T14:02:34.325Z,15.90
2019-02-15T14:04:37.261Z,16.00
2019-02-15T14:06:40.311Z,16.10
2019-02-15T14:08:43.257Z,16.20
2019-02-15T14:10:47.064Z,16.30
2019-02-15T14:12:50.116Z,16.30
2019-02-15T14:14:53.132Z,16.40
2019-02-15T14:16:56.837Z,16.60
2019-02-15T14:19:00.557Z,16.70
2019-02-15T14:21:03.483Z,16.70
2019-02-15T14:23:06.499Z,16.70
2019-02-15T14:25:11.141Z,16.90
2019-02-15T14:27:14.924Z,16.90
2019-02-15T14:29:18.726Z,17.00
2019-02-15T14:31:22.456Z,17.10
2019-02-15T14:33:25.407Z,17.10
2019-02-15T14:35:29.110Z,17.10
2019-02-15T14:37:32.824Z,17.20
2019-02-15T14:39:35.744Z,17.20
2019-02-15T14:41:38.672Z,17.20
2019-02-15T14:43:42.579Z,17.20
2019-02-15T14:45:45.520Z,17.20
2019-02-15T14:47:55.001Z,17.20
2019-02-15T14:49:52.281Z,17.20
2019-02-15T14:51:55.329Z,17.20
2019-02-15T14:53:59.131Z,17.10
2019-02-15T14:56:02.864Z,17.10
2019-02-15T14:58:05.795Z,17.10
2019-02-15T15:00:15.750Z,17.10
2019-02-15T15:02:19.470Z,17.00
2019-02-15T15:04:23.262Z,17.00
2019-02-15T15:06:26.941Z,17.00
2019-02-15T15:08:31.495Z,16.90
2019-02-15T15:10:34.419Z,16.90
2019-02-15T15:12:37.392Z,16.90
2019-02-15T15:14:40.344Z,16.90
2019-02-15T15:16:43.279Z,16.80
2019-02-15T15:18:46.249Z,16.80
2019-02-15T15:20:49.211Z,16.70
2019-02-15T15:22:52.228Z,16.70
2019-02-15T15:24:55.160Z,16.70
2019-02-15T15:26:58.141Z,16.60
2019-02-15T15:29:01.066Z,16.60
2019-02-15T15:31:04.089Z,16.50
2019-02-15T15:33:08.132Z,16.50
2019-02-15T15:35:11.071Z,16.50
2019-02-15T15:37:16.758Z,16.40
2019-02-15T15:39:18.706Z,16.40
2019-02-15T15:41:21.629Z,16.40
2019-02-15T15:43:24.651Z,16.40
2019-02-15T15:45:28.468Z,16.30
2019-02-15T15:47:33.229Z,16.30
2019-02-15T15:49:35.954Z,16.20
2019-02-15T15:51:39.983Z,16.20
2019-02-15T15:53:42.919Z,16.20
2019-02-15T15:55:45.931Z,16.10
2019-02-15T15:57:49.701Z,16.10
2019-02-15T15:59:52.628Z,16.00
2019-02-15T16:01:55.561Z,16.00
2019-02-15T16:03:58.582Z,16.00
2019-02-15T16:06:02.276Z,15.90
2019-02-15T16:08:05.259Z,15.90
2019-02-15T16:10:12.648Z,15.80
2019-02-15T16:12:15.878Z,15.80
2019-02-15T16:14:18.815Z,15.80
2019-02-15T16:16:22.554Z,15.60
2019-02-15T16:18:33.055Z,15.60
2019-02-15T16:20:28.443Z,15.60
2019-02-15T16:22:31.491Z,15.60
2019-02-15T16:24:34.415Z,15.50
2019-02-15T16:26:37.431Z,15.40
2019-02-15T16:28:41.152Z,15.30
2019-02-15T16:30:44.095Z,15.30
2019-02-15T16:32:47.035Z,15.20
2019-02-15T16:34:49.986Z,15.20
2019-02-15T16:36:52.946Z,15.10
2019-02-15T16:38:56.660Z,15.00
2019-02-15T16:40:59.785Z,15.00
2019-02-15T16:43:02.896Z,14.90
2019-02-15T16:45:05.808Z,14.90
2019-02-15T16:47:09.617Z,14.70
2019-02-15T16:49:13.421Z,14.60
2019-02-15T16:51:17.120Z,14.60
2019-02-15T16:53:20.860Z,14.50
2019-02-15T16:55:23.803Z,14.50
2019-02-15T16:57:27.604Z,14.30
2019-02-15T16:59:31.770Z,14.20
2019-02-15T17:01:34.712Z,14.20
2019-02-15T17:03:37.638Z,14.10
2019-02-15T17:05:40.600Z,14.00
2019-02-15T17:07:43.512Z,13.90
2019-02-15T17:09:46.529Z,13.80
2019-02-15T17:11:50.352Z,13.60
2019-02-15T17:13:53.416Z,13.60
2019-02-15T17:15:57.132Z,13.40
2019-02-15T17:18:00.116Z,13.40
2019-02-15T17:20:03.056Z,13.30
2019-02-15T17:22:06.166Z,13.30
2019-02-15T17:24:10.001Z,13.10
2019-02-15T17:26:12.933Z,13.10
2019-02-15T17:28:16.632Z,12.90
2019-02-15T17:30:19.583Z,12.90
2019-02-15T17:32:22.514Z,12.80
2019-02-15T17:34:26.222Z,12.70
2019-02-15T17:36:29.963Z,12.60
2019-02-15T17:38:32.898Z,12.60
2019-02-15T17:40:35.838Z,12.60
2019-02-15T17:42:38.813Z,12.50
2019-02-15T17:44:41.736Z,12.40
2019-02-15T17:46:45.444Z,12.30
2019-02-15T17:48:49.188Z,12.20
2019-02-15T17:50:52.109Z,12.20
2019-02-15T17:52:55.815Z,12.10
2019-02-15T17:54:59.554Z,12.10
2019-02-15T17:57:02.509Z,12.00
2019-02-15T17:59:06.231Z,11.90
2019-02-15T18:01:09.295Z,11.90
2019-02-15T18:03:13.000Z,11.80
2019-02-15T18:05:16.948Z,11.80
2019-02-15T18:07:19.936Z,11.80
2019-02-15T18:09:22.928Z,11.70
2019-02-15T18:11:25.955Z,11.70
2019-02-15T18:13:29.688Z,11.60
2019-02-15T18:15:32.612Z,11.60
2019-02-15T18:17:35.595Z,11.60
2019-02-15T18:19:46.889Z,11.50
2019-02-15T18:21:41.787Z,11.50
2019-02-15T18:23:45.591Z,11.40
2019-02-15T18:25:49.828Z,11.40
2019-02-15T18:27:52.760Z,11.40
2019-02-15T18:29:55.978Z,11.40
2019-02-15T18:31:59.722Z,11.30
2019-02-15T18:34:02.656Z,11.30
2019-02-15T18:36:06.459Z,11.30
2019-02-15T18:38:10.276Z,11.30
2019-02-15T18:40:13.265Z,11.20
2019-02-15T18:42:16.204Z,11.20
2019-02-15T18:44:19.158Z,11.20
2019-02-15T18:46:22.090Z,11.20
2019-02-15T18:48:26.611Z,11.10
2019-02-15T18:50:30.384Z,11.10
2019-02-15T18:52:33.311Z,11.10
2019-02-15T18:54:36.275Z,11.10
2019-02-15T18:56:39.397Z,11.10
2019-02-15T18:58:42.332Z,11.00
2019-02-15T19:00:46.148Z,11.00
2019-02-15T19:02:50.283Z,11.00
2019-02-15T19:04:53.224Z,10.90
2019-02-15T19:06:56.173Z,10.90
2019-02-15T19:08:59.207Z,10.90
2019-02-15T19:11:02.916Z,10.80
2019-02-15T19:13:05.856Z,10.80
2019-02-15T19:15:08.823Z,10.80
2019-02-15T19:17:11.854Z,10.70
2019-02-15T19:19:15.552Z,10.70
2019-02-15T19:21:19.305Z,10.60
2019-02-15T19:23:22.339Z,10.60
2019-02-15T19:25:26.055Z,10.50
2019-02-15T19:27:29.023Z,10.50
2019-02-15T19:29:32.834Z,10.40
2019-02-15T19:31:35.788Z,10.40
2019-02-15T19:33:38.756Z,10.40
2019-02-15T19:35:41.980Z,10.40
2019-02-15T19:37:45.759Z,10.30
2019-02-15T19:39:49.126Z,10.30
2019-02-15T19:41:52.158Z,10.30
2019-02-15T19:43:55.959Z,10.20
2019-02-15T19:45:59.679Z,10.20
2019-02-15T19:48:02.691Z,10.20
2019-02-15T19:50:08.161Z,10.10
2019-02-15T19:52:12.016Z,10.10
2019-02-15T19:54:14.956Z,10.10
2019-02-15T19:56:18.919Z,10.10
2019-02-15T19:58:21.887Z,10.10
2019-02-15T20:00:25.648Z,10.00
2019-02-15T20:02:29.465Z,10.00
2019-02-15T20:04:33.307Z,10.00
2019-02-15T20:06:37.171Z,9.90
2019-02-15T20:08:40.900Z,9.90
2019-02-15T20:10:43.957Z,9.90
2019-02-15T20:12:47.652Z,9.80
2019-02-15T20:14:51.355Z,9.80
2019-02-15T20:16:54.445Z,9.70
2019-02-15T20:18:58.247Z,9.70
2019-02-15T20:21:01.185Z,9.70
2019-02-15T20:23:04.235Z,9.70
2019-02-15T20:25:07.171Z,9.70
2019-02-15T20:27:10.174Z,9.70
2019-02-15T20:29:14.003Z,9.70
2019-02-15T20:31:17.165Z,9.60
2019-02-15T20:33:20.105Z,9.60
2019-02-15T20:35:23.258Z,9.60
2019-02-15T20:37:26.324Z,9.60
2019-02-15T20:39:29.259Z,9.60
2019-02-15T20:41:32.631Z,9.60
2019-02-15T20:43:35.584Z,9.50
2019-02-15T20:45:38.533Z,9.50
2019-02-15T20:47:41.508Z,9.40
2019-02-15T20:49:44.499Z,9.40
2019-02-15T20:51:47.432Z,9.40
2019-02-15T20:53:50.492Z,9.40
2019-02-15T20:55:54.200Z,9.30
2019-02-15T20:57:57.136Z,9.30
2019-02-15T21:00:02.099Z,9.20
2019-02-15T21:02:05.085Z,9.20
2019-02-15T21:04:08.838Z,9.20
2019-02-15T21:06:11.892Z,9.10
2019-02-15T21:08:14.860Z,9.10
2019-02-15T21:10:18.759Z,9.00
2019-02-15T21:12:22.073Z,9.00
2019-02-15T21:14:25.067Z,9.00
2019-02-15T21:16:28.004Z,9.00
2019-02-15T21:18:31.737Z,8.90
2019-02-15T21:20:34.647Z,8.90
2019-02-15T21:22:37.680Z,8.80
2019-02-15T21:24:41.523Z,8.80
2019-02-15T21:26:44.449Z,8.70
2019-02-15T21:28:47.449Z,8.80
2019-02-15T21:30:51.252Z,8.60
2019-02-15T21:32:54.338Z,8.60
2019-02-15T21:34:58.069Z,8.60
2019-02-15T21:37:01.051Z,8.60
2019-02-15T21:39:04.138Z,8.50
2019-02-15T21:41:07.799Z,8.50
2019-02-15T21:43:11.530Z,8.40
2019-02-15T21:45:14.489Z,8.40
2019-02-15T21:47:18.254Z,8.40
2019-02-15T21:49:21.293Z,8.30
2019-02-15T21:51:24.240Z,8.30
2019-02-15T21:53:27.942Z,8.30
2019-02-15T21:55:31.759Z,8.20
2019-02-15T21:57:34.716Z,8.20
2019-02-15T21:59:37.649Z,8.20
2019-02-15T22:01:40.617Z,8.20
2019-02-15T22:03:43.795Z,8.10
2019-02-15T22:05:46.862Z,8.10
2019-02-15T22:07:50.586Z,8.10
2019-02-15T22:09:53.666Z,8.10
2019-02-15T22:11:57.016Z,8.10
2019-02-15T22:14:00.213Z,8.10
2019-02-15T22:16:03.169Z,8.10
2019-02-15T22:18:06.315Z,8.10
2019-02-15T22:20:12.267Z,8.10
2019-02-15T22:22:15.232Z,8.10
2019-02-15T22:24:18.940Z,8.00
2019-02-15T22:26:22.158Z,8.00
2019-02-15T22:28:25.072Z,8.00
2019-02-15T22:30:28.011Z,8.00
2019-02-15T22:32:31.103Z,8.00
2019-02-15T22:34:34.027Z,8.00
2019-02-15T22:36:37.051Z,8.00
2019-02-15T22:38:40.779Z,7.90
2019-02-15T22:40:43.720Z,7.90
2019-02-15T22:42:47.412Z,7.90
2019-02-15T22:44:50.364Z,7.90
2019-02-15T22:46:53.352Z,7.80
2019-02-15T22:48:56.247Z,7.80
2019-02-15T22:50:59.389Z,7.80
2019-02-15T22:53:02.311Z,7.80
2019-02-15T22:55:05.335Z,7.80
2019-02-15T22:57:08.324Z,7.70
2019-02-15T22:59:11.300Z,7.70
2019-02-15T23:01:15.001Z,7.60
2019-02-15T23:03:19.520Z,7.50
2019-02-15T23:05:22.619Z,7.60
2019-02-15T23:07:25.554Z,7.50
2019-02-15T23:09:29.963Z,7.50
2019-02-15T23:11:32.900Z,7.50
2019-02-15T23:13:35.926Z,7.40
2019-02-15T23:15:39.307Z,7.40
2019-02-15T23:17:42.352Z,7.40
2019-02-15T23:19:45.920Z,7.30
2019-02-15T23:21:50.381Z,7.30
2019-02-15T23:23:53.303Z,7.20
2019-02-15T23:25:56.327Z,7.20
2019-02-15T23:28:00.048Z,7.20
2019-02-15T23:30:02.972Z,7.20
2019-02-15T23:32:05.994Z,7.20
2019-02-15T23:34:09.724Z,7.10
2019-02-15T23:36:12.652Z,7.10
2019-02-15T23:38:15.594Z,7.10
2019-02-15T23:40:18.539Z,7.10
2019-02-15T23:42:22.272Z,7.10
2019-02-15T23:44:25.214Z,7.00
2019-02-15T23:46:29.040Z,7.00
2019-02-15T23:48:31.959Z,7.00
2019-02-15T23:50:34.928Z,7.00
2019-02-15T23:52:38.737Z,6.90
2019-02-15T23:54:41.775Z,6.90
2019-02-15T23:56:45.459Z,6.90
2019-02-15T23:58:49.564Z,6.80
